createdAt,value
2022-10-19T00:02:20.292Z,53.41
2022-10-19T00:04:46.976Z,53.27
2022-10-19T00:07:13.734Z,53.50
2022-10-19T00:09:40.407Z,52.97
2022-10-19T00:12:07.140Z,53.37
2022-10-19T00:14:33.838Z,53.41
2022-10-19T00:17:00.588Z,53.30
2022-10-19T00:19:27.986Z,53.03
2022-10-19T00:21:55.587Z,53.15
2022-10-19T00:24:22.592Z,53.15
2022-10-19T00:26:49.612Z,53.18
2022-10-19T00:29:16.712Z,53.36
2022-10-19T00:31:43.615Z,52.99
2022-10-19T00:34:10.567Z,53.37
2022-10-19T00:36:40.219Z,52.93
2022-10-19T00:39:11.068Z,52.93
2022-10-19T00:41:38.680Z,53.25
2022-10-19T00:44:34.405Z,52.89
2022-10-19T00:47:05.626Z,52.79
2022-10-19T00:49:36.703Z,53.21
2022-10-19T00:52:13.401Z,52.91
2022-10-19T00:54:41.666Z,52.76
2022-10-19T00:57:08.659Z,53.12
2022-10-19T00:59:36.481Z,53.30
2022-10-19T01:02:04.865Z,53.31
2022-10-19T01:04:33.628Z,52.95
2022-10-19T01:07:00.495Z,53.03
2022-10-19T01:09:27.276Z,53.20
2022-10-19T01:12:11.471Z,53.12
2022-10-19T01:15:06.052Z,53.39
2022-10-19T01:17:35.614Z,53.27
2022-10-19T01:20:21.376Z,52.96
2022-10-19T01:23:20.056Z,53.34
2022-10-19T01:25:52.667Z,53.00
2022-10-19T01:28:38.271Z,53.08
2022-10-19T01:31:24.310Z,53.09
2022-10-19T01:34:00.373Z,53.22
2022-10-19T01:36:35.908Z,53.26
2022-10-19T01:39:09.225Z,53.22
2022-10-19T01:41:58.190Z,53.04
2022-10-19T01:44:36.108Z,53.01
2022-10-19T01:47:05.866Z,53.17
2022-10-19T01:49:48.409Z,53.08
2022-10-19T01:52:17.685Z,53.24
2022-10-19T01:54:49.791Z,53.27
2022-10-19T01:57:21.690Z,52.82
2022-10-19T01:59:49.503Z,53.20
2022-10-19T02:02:17.263Z,53.26
2022-10-19T02:04:44.777Z,53.22
2022-10-19T02:07:11.759Z,53.33
2022-10-19T02:09:38.465Z,52.89
2022-10-19T02:12:09.145Z,53.29
2022-10-19T02:14:40.684Z,53.05
2022-10-19T02:17:14.304Z,53.01
2022-10-19T02:19:42.522Z,53.19
2022-10-19T02:22:10.125Z,52.94
2022-10-19T02:24:36.851Z,53.41
2022-10-19T02:27:05.953Z,52.96
2022-10-19T02:29:33.585Z,53.06
2022-10-19T02:32:01.016Z,53.13
2022-10-19T02:34:27.909Z,53.02
2022-10-19T02:36:55.074Z,53.13
2022-10-19T02:39:22.104Z,53.54
2022-10-19T02:42:03.468Z,53.30
2022-10-19T02:44:36.952Z,53.31
2022-10-19T02:47:11.499Z,53.57
2022-10-19T02:49:39.211Z,53.53
2022-10-19T02:52:08.743Z,53.55
2022-10-19T02:54:35.943Z,53.38
2022-10-19T02:57:04.960Z,53.30
2022-10-19T02:59:31.676Z,53.65
2022-10-19T03:01:58.306Z,53.63
2022-10-19T03:04:25.032Z,53.56
2022-10-19T03:06:51.671Z,53.35
2022-10-19T03:09:18.627Z,53.71
2022-10-19T03:11:45.291Z,53.76
2022-10-19T03:14:12.049Z,53.73
2022-10-19T03:16:38.697Z,53.84
2022-10-19T03:19:05.455Z,53.78
2022-10-19T03:21:34.126Z,53.89
2022-10-19T03:24:01.148Z,53.84
2022-10-19T03:26:27.849Z,53.60
2022-10-19T03:28:54.565Z,53.51
2022-10-19T03:31:21.351Z,53.54
2022-10-19T03:33:48.063Z,53.54
2022-10-19T03:36:28.884Z,53.89
2022-10-19T03:38:57.712Z,53.69
2022-10-19T03:41:26.686Z,53.86
2022-10-19T03:43:53.688Z,54.18
2022-10-19T03:46:21.136Z,53.71
2022-10-19T03:48:48.112Z,53.74
2022-10-19T03:51:16.998Z,54.21
2022-10-19T03:53:44.663Z,54.31
2022-10-19T03:56:16.349Z,54.21
2022-10-19T03:58:44.756Z,54.38
2022-10-19T04:01:20.516Z,54.43
2022-10-19T04:03:47.485Z,54.18
2022-10-19T04:06:19.593Z,54.23
2022-10-19T04:08:49.929Z,54.03
2022-10-19T04:11:18.310Z,53.97
2022-10-19T04:13:45.034Z,54.07
2022-10-19T04:16:13.795Z,54.04
2022-10-19T04:18:40.472Z,53.97
2022-10-19T04:21:07.235Z,54.28
2022-10-19T04:23:36.206Z,54.08
2022-10-19T04:26:05.804Z,53.91
2022-10-19T04:28:33.669Z,54.00
2022-10-19T04:31:07.239Z,54.09
2022-10-19T04:33:34.888Z,53.82
2022-10-19T04:36:06.738Z,54.43
2022-10-19T04:38:34.166Z,54.01
2022-10-19T04:41:05.801Z,54.21
2022-10-19T04:43:32.764Z,53.79
2022-10-19T04:46:10.975Z,53.96
2022-10-19T04:48:38.461Z,53.92
2022-10-19T04:51:05.863Z,54.02
2022-10-19T04:53:33.678Z,54.25
2022-10-19T04:56:00.604Z,53.91
2022-10-19T04:58:27.410Z,53.95
2022-10-19T05:00:54.178Z,54.21
2022-10-19T05:03:20.930Z,54.17
2022-10-19T05:05:47.557Z,53.93
2022-10-19T05:08:14.423Z,54.08
2022-10-19T05:10:44.252Z,54.04
2022-10-19T05:13:13.675Z,54.40
2022-10-19T05:15:40.354Z,54.33
2022-10-19T05:18:07.092Z,53.92
2022-10-19T05:20:33.808Z,54.25
2022-10-19T05:23:04.704Z,54.26
2022-10-19T05:25:34.075Z,53.67
2022-10-19T05:28:00.934Z,54.13
2022-10-19T05:30:27.672Z,53.55
2022-10-19T05:32:54.345Z,54.03
2022-10-19T05:35:22.627Z,53.67
2022-10-19T05:37:54.460Z,54.02
2022-10-19T05:40:21.243Z,53.34
2022-10-19T05:42:47.912Z,52.79
2022-10-19T05:45:14.776Z,52.70
2022-10-19T05:47:41.462Z,52.77
2022-10-19T05:50:08.756Z,52.79
2022-10-19T05:52:35.430Z,52.95
2022-10-19T05:55:03.061Z,53.54
2022-10-19T05:57:32.160Z,53.41
2022-10-19T05:59:59.453Z,53.56
2022-10-19T06:02:26.218Z,53.79
2022-10-19T06:04:53.040Z,53.82
2022-10-19T06:07:19.748Z,54.11
2022-10-19T06:09:46.621Z,54.21
2022-10-19T06:12:15.744Z,53.96
2022-10-19T06:14:43.248Z,53.83
2022-10-19T06:17:10.789Z,54.23
2022-10-19T06:19:37.675Z,54.24
2022-10-19T06:22:04.407Z,54.12
2022-10-19T06:24:31.265Z,54.10
2022-10-19T06:26:57.932Z,54.29
2022-10-19T06:29:24.667Z,54.78
2022-10-19T06:31:52.138Z,54.88
2022-10-19T06:34:18.946Z,54.36
2022-10-19T06:36:46.203Z,54.81
2022-10-19T06:39:13.008Z,54.49
2022-10-19T06:41:39.636Z,55.07
2022-10-19T06:44:18.158Z,54.77
2022-10-19T06:46:44.881Z,54.81
2022-10-19T06:49:13.334Z,55.06
2022-10-19T06:51:40.744Z,55.27
2022-10-19T06:54:07.965Z,55.33
2022-10-19T06:56:34.732Z,55.13
2022-10-19T06:59:01.844Z,55.36
2022-10-19T07:01:28.872Z,54.98
2022-10-19T07:03:55.697Z,55.37
2022-10-19T07:06:22.650Z,55.02
2022-10-19T07:08:49.309Z,55.40
2022-10-19T07:11:19.132Z,55.47
2022-10-19T07:13:47.023Z,55.09
2022-10-19T07:16:19.518Z,55.13
2022-10-19T07:18:52.191Z,55.49
2022-10-19T07:21:19.109Z,55.47
2022-10-19T07:23:47.273Z,55.12
2022-10-19T07:26:15.810Z,55.29
2022-10-19T07:28:42.991Z,55.15
2022-10-19T07:31:10.801Z,55.32
2022-10-19T07:33:37.605Z,55.27
2022-10-19T07:36:09.998Z,55.54
2022-10-19T07:38:36.722Z,55.44
2022-10-19T07:41:07.111Z,55.19
2022-10-19T07:43:34.062Z,55.62
2022-10-19T07:46:01.344Z,55.80
2022-10-19T07:48:28.042Z,55.48
2022-10-19T07:50:55.275Z,55.74
2022-10-19T07:53:22.147Z,55.85
2022-10-19T07:55:49.270Z,55.50
2022-10-19T07:58:16.025Z,55.59
2022-10-19T08:00:42.684Z,55.72
2022-10-19T08:03:43.638Z,55.78
2022-10-19T08:06:26.111Z,55.85
2022-10-19T08:08:52.977Z,55.99
2022-10-19T08:11:20.792Z,56.39
2022-10-19T08:13:47.691Z,56.05
2022-10-19T08:16:21.365Z,56.28
2022-10-19T08:18:48.114Z,56.09
2022-10-19T08:21:14.625Z,56.31
2022-10-19T08:23:41.485Z,56.57
2022-10-19T08:26:08.065Z,56.74
2022-10-19T08:28:34.653Z,56.95
2022-10-19T08:31:09.154Z,57.04
2022-10-19T08:33:35.748Z,57.30
2022-10-19T08:36:04.610Z,57.27
2022-10-19T08:38:31.224Z,57.55
2022-10-19T08:40:58.069Z,57.13
2022-10-19T08:43:30.306Z,57.17
2022-10-19T08:46:12.744Z,57.38
2022-10-19T08:48:43.055Z,57.57
2022-10-19T08:51:10.362Z,57.26
2022-10-19T08:53:43.730Z,57.71
2022-10-19T08:56:22.193Z,57.47
2022-10-19T08:58:59.091Z,57.39
2022-10-19T09:01:25.580Z,57.70
2022-10-19T09:04:12.442Z,57.78
2022-10-19T09:06:43.351Z,57.51
2022-10-19T09:09:10.804Z,57.46
2022-10-19T09:11:38.309Z,57.62
2022-10-19T09:14:25.186Z,57.53
2022-10-19T09:16:51.819Z,57.97
2022-10-19T09:19:22.868Z,58.18
2022-10-19T09:22:00.981Z,58.24
2022-10-19T09:24:32.601Z,58.25
2022-10-19T09:27:00.021Z,57.91
2022-10-19T09:29:32.433Z,57.87
2022-10-19T09:31:59.656Z,58.25
2022-10-19T09:34:27.108Z,58.28
2022-10-19T09:36:54.350Z,58.13
2022-10-19T09:39:22.596Z,58.54
2022-10-19T09:41:54.842Z,58.28
2022-10-19T09:44:22.387Z,58.36
2022-10-19T09:46:52.507Z,58.77
2022-10-19T09:49:19.959Z,58.41
2022-10-19T09:51:51.777Z,58.46
2022-10-19T09:54:23.223Z,58.41
2022-10-19T09:56:53.103Z,58.46
2022-10-19T09:59:23.684Z,58.31
2022-10-19T10:02:19.804Z,58.49
2022-10-19T10:04:56.099Z,58.22
2022-10-19T10:07:23.507Z,58.21
2022-10-19T10:09:50.080Z,58.38
2022-10-19T10:12:16.764Z,58.04
2022-10-19T10:14:43.800Z,58.11
2022-10-19T10:17:17.367Z,57.90
2022-10-19T10:19:51.166Z,57.84
2022-10-19T10:22:25.594Z,57.90
2022-10-19T10:24:52.948Z,57.65
2022-10-19T10:27:30.724Z,57.63
2022-10-19T10:29:57.509Z,57.71
2022-10-19T10:32:24.098Z,57.34
2022-10-19T10:35:01.018Z,57.66
2022-10-19T10:37:29.951Z,57.08
2022-10-19T10:39:59.190Z,56.95
2022-10-19T10:42:29.831Z,57.00
2022-10-19T10:44:56.534Z,56.83
2022-10-19T10:47:23.136Z,56.75
2022-10-19T10:49:53.272Z,56.70
2022-10-19T10:52:19.896Z,56.53
2022-10-19T10:55:10.132Z,56.32
2022-10-19T10:57:38.717Z,56.51
2022-10-19T11:00:14.174Z,56.04
2022-10-19T11:02:59.807Z,55.70
2022-10-19T11:05:33.383Z,55.67
2022-10-19T11:08:12.426Z,55.87
2022-10-19T11:10:48.211Z,55.71
2022-10-19T11:13:16.390Z,55.15
2022-10-19T11:16:03.227Z,55.08
2022-10-19T11:18:30.776Z,55.23
2022-10-19T11:21:07.926Z,54.91
2022-10-19T11:23:42.450Z,54.95
2022-10-19T11:26:27.905Z,54.81
2022-10-19T11:28:59.610Z,54.70
2022-10-19T11:31:29.828Z,54.47
2022-10-19T11:34:00.344Z,54.44
2022-10-19T11:36:33.132Z,53.81
2022-10-19T11:39:18.336Z,54.02
2022-10-19T11:41:44.950Z,54.13
2022-10-19T11:44:15.604Z,53.89
2022-10-19T11:47:01.201Z,53.86
2022-10-19T11:49:31.791Z,53.73
2022-10-19T11:52:01.808Z,53.62
2022-10-19T11:54:48.690Z,53.44
2022-10-19T11:57:16.564Z,53.27
2022-10-19T11:59:46.539Z,53.06
2022-10-19T12:02:13.231Z,53.03
2022-10-19T12:04:42.658Z,52.54
2022-10-19T12:07:27.492Z,52.66
2022-10-19T12:09:54.107Z,52.66
2022-10-19T12:12:20.685Z,52.34
2022-10-19T12:14:55.297Z,52.27
2022-10-19T12:17:31.504Z,52.42
2022-10-19T12:20:17.482Z,52.33
2022-10-19T12:22:46.515Z,52.13
2022-10-19T12:25:13.594Z,52.03
2022-10-19T12:27:40.470Z,52.13
2022-10-19T12:30:20.303Z,51.96
2022-10-19T12:32:54.318Z,52.13
2022-10-19T12:35:24.339Z,52.02
2022-10-19T12:38:11.242Z,52.18
2022-10-19T12:40:40.544Z,51.83
2022-10-19T12:43:14.986Z,52.06
2022-10-19T12:45:43.371Z,52.18
2022-10-19T12:48:13.009Z,51.90
2022-10-19T12:50:48.461Z,51.97
2022-10-19T12:55:59.421Z,52.22
2022-10-19T12:58:26.003Z,52.25
2022-10-19T13:00:59.590Z,52.38
2022-10-19T13:03:29.709Z,52.23
2022-10-19T13:06:00.525Z,52.10
2022-10-19T13:08:31.704Z,52.08
2022-10-19T13:11:07.417Z,51.93
2022-10-19T13:13:52.315Z,51.97
2022-10-19T13:16:37.262Z,51.86
2022-10-19T13:19:29.854Z,51.98
2022-10-19T13:22:02.261Z,52.38
2022-10-19T13:24:30.721Z,52.43
2022-10-19T13:27:03.498Z,52.32
2022-10-19T13:29:39.287Z,52.31
2022-10-19T13:32:24.519Z,52.27
2022-10-19T13:34:51.114Z,52.36
2022-10-19T13:37:17.795Z,52.36
2022-10-19T13:39:44.423Z,52.14
2022-10-19T13:42:23.980Z,52.09
2022-10-19T13:44:53.020Z,52.03
2022-10-19T13:47:19.602Z,51.74
2022-10-19T13:50:04.686Z,51.50
2022-10-19T13:52:46.679Z,51.69
2022-10-19T13:55:33.548Z,51.65
2022-10-19T13:58:18.423Z,51.43
2022-10-19T14:00:49.912Z,51.71
2022-10-19T14:03:19.867Z,51.16
2022-10-19T14:05:46.381Z,51.07
2022-10-19T14:08:12.983Z,51.06
2022-10-19T14:13:26.495Z,51.16
2022-10-19T14:15:54.079Z,51.02
2022-10-19T14:18:25.197Z,50.86
2022-10-19T14:20:59.074Z,50.62
2022-10-19T14:23:27.633Z,50.56
2022-10-19T14:25:57.375Z,50.50
2022-10-19T14:28:24.088Z,50.62
2022-10-19T14:30:54.533Z,50.63
2022-10-19T14:33:21.178Z,50.75
2022-10-19T14:35:49.467Z,50.44
2022-10-19T14:38:17.742Z,50.54
2022-10-19T14:40:44.307Z,50.96
2022-10-19T14:43:21.647Z,50.40
2022-10-19T14:46:06.594Z,50.94
2022-10-19T14:48:33.970Z,50.79
2022-10-19T14:51:00.493Z,50.52
2022-10-19T14:53:33.029Z,50.79
2022-10-19T14:56:01.835Z,50.37
2022-10-19T14:58:28.337Z,50.51
2022-10-19T15:00:54.936Z,50.92
2022-10-19T15:03:24.411Z,50.72
2022-10-19T15:05:52.323Z,50.80
2022-10-19T15:08:28.117Z,50.90
2022-10-19T15:10:54.710Z,50.45
2022-10-19T15:13:28.437Z,50.85
2022-10-19T15:15:55.394Z,50.62
2022-10-19T15:18:43.972Z,50.79
2022-10-19T15:21:19.515Z,51.33
2022-10-19T15:23:50.122Z,50.91
2022-10-19T15:26:21.378Z,51.36
2022-10-19T15:28:48.353Z,51.32
2022-10-19T15:31:24.142Z,51.40
2022-10-19T15:33:51.654Z,51.05
2022-10-19T15:36:19.626Z,51.09
2022-10-19T15:38:47.610Z,51.18
2022-10-19T15:41:18.264Z,51.43
2022-10-19T15:44:04.989Z,51.41
2022-10-19T15:46:32.729Z,51.18
2022-10-19T15:49:19.575Z,51.19
2022-10-19T15:51:46.895Z,51.19
2022-10-19T15:54:17.017Z,51.63
2022-10-19T15:56:44.799Z,51.30
2022-10-19T15:59:15.639Z,51.65
2022-10-19T16:01:42.464Z,51.97
2022-10-19T16:04:09.261Z,52.04
2022-10-19T16:06:36.542Z,52.04
2022-10-19T16:09:03.979Z,52.41
2022-10-19T16:11:30.752Z,52.27
2022-10-19T16:13:57.534Z,52.61
2022-10-19T16:16:25.640Z,52.26
2022-10-19T16:18:52.532Z,52.27
2022-10-19T16:21:19.702Z,52.41
2022-10-19T16:23:46.238Z,52.75
2022-10-19T16:26:15.579Z,52.90
2022-10-19T16:28:42.450Z,53.35
2022-10-19T16:31:09.185Z,53.56
2022-10-19T16:33:35.736Z,53.73
2022-10-19T16:36:06.085Z,53.75
2022-10-19T16:38:33.110Z,54.30
2022-10-19T16:41:06.615Z,54.85
2022-10-19T16:43:33.264Z,54.80
2022-10-19T16:45:59.979Z,55.16
2022-10-19T16:48:27.170Z,55.41
2022-10-19T16:51:05.952Z,55.17
2022-10-19T16:53:33.148Z,55.22
2022-10-19T16:56:07.491Z,55.67
2022-10-19T16:58:35.591Z,55.95
2022-10-19T17:01:14.777Z,56.04
2022-10-19T17:03:41.880Z,56.17
2022-10-19T17:06:08.723Z,55.97
2022-10-19T17:08:37.330Z,56.16
2022-10-19T17:11:33.254Z,56.21
2022-10-19T17:14:01.088Z,56.51
2022-10-19T17:16:28.654Z,56.67
2022-10-19T17:18:56.240Z,56.64
2022-10-19T17:21:23.819Z,56.74
2022-10-19T17:23:57.187Z,56.66
2022-10-19T17:26:26.947Z,56.58
2022-10-19T17:28:53.532Z,56.49
2022-10-19T17:31:20.094Z,56.53
2022-10-19T17:33:46.764Z,56.40
2022-10-19T17:36:14.116Z,56.29
2022-10-19T17:38:40.839Z,56.31
2022-10-19T17:41:11.560Z,56.45
2022-10-19T17:43:38.723Z,56.35
2022-10-19T17:46:05.900Z,56.37
2022-10-19T17:48:33.435Z,56.35
2022-10-19T17:51:04.414Z,56.07
2022-10-19T17:53:31.338Z,56.06
2022-10-19T17:56:01.992Z,55.99
2022-10-19T17:58:28.866Z,56.09
2022-10-19T18:00:55.902Z,55.70
2022-10-19T18:03:23.654Z,55.66
2022-10-19T18:06:10.702Z,55.96
2022-10-19T18:08:41.678Z,55.87
2022-10-19T18:11:12.431Z,55.54
2022-10-19T18:13:39.216Z,55.45
2022-10-19T18:16:06.947Z,55.32
2022-10-19T18:18:34.362Z,55.28
2022-10-19T18:21:04.279Z,55.27
2022-10-19T18:23:30.894Z,55.27
2022-10-19T18:26:00.691Z,55.26
2022-10-19T18:28:27.323Z,55.45
2022-10-19T18:30:53.874Z,55.09
2022-10-19T18:33:20.606Z,55.23
2022-10-19T18:35:47.089Z,55.38
2022-10-19T18:38:13.723Z,55.35
2022-10-19T18:40:40.285Z,55.01
2022-10-19T18:43:06.967Z,55.28
2022-10-19T18:45:33.550Z,54.90
2022-10-19T18:48:00.563Z,55.18
2022-10-19T18:50:27.075Z,54.82
2022-10-19T18:52:53.662Z,54.78
2022-10-19T18:55:20.280Z,54.76
2022-10-19T18:57:46.994Z,55.08
2022-10-19T19:00:13.834Z,54.62
2022-10-19T19:02:46.847Z,54.65
2022-10-19T19:05:14.115Z,54.67
2022-10-19T19:07:40.659Z,54.77
2022-10-19T19:10:07.383Z,54.77
2022-10-19T19:12:34.234Z,54.87
2022-10-19T19:15:01.039Z,54.74
2022-10-19T19:17:27.549Z,54.54
2022-10-19T19:19:54.219Z,54.50
2022-10-19T19:22:20.790Z,54.68
2022-10-19T19:24:49.182Z,54.72
2022-10-19T19:27:15.744Z,54.70
2022-10-19T19:29:42.370Z,54.50
2022-10-19T19:32:08.894Z,54.43
2022-10-19T19:34:35.727Z,54.30
2022-10-19T19:37:04.080Z,54.58
2022-10-19T19:39:32.142Z,54.26
2022-10-19T19:41:58.690Z,54.49
2022-10-19T19:44:29.533Z,54.62
2022-10-19T19:46:56.715Z,54.52
2022-10-19T19:49:25.023Z,54.53
2022-10-19T19:51:52.214Z,54.48
2022-10-19T19:54:21.907Z,54.10
2022-10-19T19:56:52.270Z,54.44
2022-10-19T19:59:19.071Z,54.39
2022-10-19T20:01:45.735Z,54.06
2022-10-19T20:04:12.653Z,54.00
2022-10-19T20:06:39.684Z,54.27
2022-10-19T20:09:06.678Z,54.33
2022-10-19T20:11:34.534Z,54.11
2022-10-19T20:14:02.725Z,54.10
2022-10-19T20:16:37.166Z,54.22
2022-10-19T20:19:07.310Z,53.84
2022-10-19T20:21:34.129Z,54.03
2022-10-19T20:24:00.716Z,54.18
2022-10-19T20:26:27.468Z,53.79
2022-10-19T20:28:54.070Z,54.12
2022-10-19T20:31:20.786Z,53.99
2022-10-19T20:33:47.900Z,53.95
2022-10-19T20:36:18.662Z,53.87
2022-10-19T20:38:46.186Z,53.93
2022-10-19T20:41:12.684Z,53.59
2022-10-19T20:43:39.402Z,53.94
2022-10-19T20:46:06.714Z,53.61
2022-10-19T20:48:33.582Z,53.93
2022-10-19T20:51:12.379Z,53.64
2022-10-19T20:53:39.175Z,53.67
2022-10-19T20:56:09.207Z,53.92
2022-10-19T20:58:37.273Z,53.96
2022-10-19T21:01:04.574Z,53.69
2022-10-19T21:03:31.194Z,53.99
2022-10-19T21:05:57.741Z,53.94
2022-10-19T21:08:24.490Z,53.97
2022-10-19T21:10:51.128Z,53.57
2022-10-19T21:13:17.711Z,53.86
2022-10-19T21:15:44.604Z,53.59
2022-10-19T21:18:13.042Z,53.53
2022-10-19T21:20:41.395Z,53.49
2022-10-19T21:23:08.019Z,53.47
2022-10-19T21:25:34.549Z,53.62
2022-10-19T21:28:01.111Z,53.53
2022-10-19T21:30:27.907Z,53.57
2022-10-19T21:32:54.548Z,53.46
2022-10-19T21:35:21.039Z,53.63
2022-10-19T21:37:47.563Z,53.56
2022-10-19T21:40:14.191Z,53.80
2022-10-19T21:42:40.798Z,53.52
2022-10-19T21:45:28.650Z,53.64
2022-10-19T21:47:54.271Z,53.40
2022-10-19T21:50:20.773Z,53.35
2022-10-19T21:52:47.358Z,53.68
2022-10-19T21:55:13.995Z,53.38
2022-10-19T21:57:40.575Z,53.35
2022-10-19T22:00:07.279Z,53.55
2022-10-19T22:02:39.506Z,53.69
2022-10-19T22:05:06.195Z,53.41
2022-10-19T22:07:32.888Z,53.70
2022-10-19T22:09:59.700Z,53.34
2022-10-19T22:12:26.166Z,53.59
2022-10-19T22:14:52.811Z,53.34
2022-10-19T22:17:19.323Z,53.29
2022-10-19T22:19:45.930Z,53.33
2022-10-19T22:22:12.485Z,53.27
2022-10-19T22:24:39.030Z,53.28
2022-10-19T22:27:05.514Z,53.38
2022-10-19T22:29:32.145Z,53.45
2022-10-19T22:31:58.694Z,53.57
2022-10-19T22:34:25.307Z,53.35
2022-10-19T22:36:51.851Z,53.23
2022-10-19T22:39:18.557Z,53.25
2022-10-19T22:41:45.087Z,53.23
2022-10-19T22:44:11.804Z,53.52
2022-10-19T22:46:38.309Z,53.24
2022-10-19T22:49:05.055Z,53.38
2022-10-19T22:51:31.723Z,53.10
2022-10-19T22:53:58.409Z,53.03
2022-10-19T22:56:24.919Z,53.34
2022-10-19T22:58:51.659Z,53.13
2022-10-19T23:01:18.274Z,53.04
2022-10-19T23:03:44.983Z,53.34
2022-10-19T23:06:12.940Z,53.35
2022-10-19T23:08:39.771Z,53.16
2022-10-19T23:11:06.367Z,53.38
2022-10-19T23:13:33.086Z,53.12
2022-10-19T23:15:59.621Z,53.39
2022-10-19T23:18:26.287Z,53.40
2022-10-19T23:20:56.210Z,53.10
2022-10-19T23:23:22.886Z,53.41
2022-10-19T23:26:03.526Z,53.15
2022-10-19T23:28:30.543Z,53.17
2022-10-19T23:30:58.542Z,53.44
2022-10-19T23:33:25.671Z,53.14
2022-10-19T23:35:52.236Z,53.09
2022-10-19T23:38:18.884Z,53.47
2022-10-19T23:40:45.518Z,53.45
2022-10-19T23:43:12.127Z,53.56
2022-10-19T23:45:39.088Z,53.22
2022-10-19T23:48:05.772Z,53.57
2022-10-19T23:50:32.274Z,53.57
2022-10-19T23:52:58.888Z,53.54
2022-10-19T23:55:25.491Z,53.56
2022-10-19T23:57:52.079Z,53.59
